Terminal Aerodrome Forecast
Issued by NWS Raleigh/Durham, NC

Home | Current Version | Previous Version | Text Only | Print | Product List | Glossary On
Versions: 1 2 3 4 5 6 7 8 9 10 11 12 13 14 15 16 17 18 19 20 21 22 23 24
000
FTUS42 KRAH 210522
TAFFAY
TAF
KFAY 210522Z 2106/2206 02012G16KT P6SM OVC050
      TEMPO 2108/2112 BKN025
     FM211500 35009KT P6SM SCT035=

USA.gov is the U.S. government's official web portal to all federal, state and local government web resources and services.